createdAt,value
2022-12-08T00:00:08.378Z,69.31
2022-12-08T00:02:46.827Z,69.14
2022-12-08T00:05:38.254Z,69.46
2022-12-08T00:08:29.521Z,69.63
2022-12-08T00:11:01.935Z,69.46
2022-12-08T00:13:34.628Z,69.14
2022-12-08T00:16:09.064Z,69.40
2022-12-08T00:18:41.565Z,69.23
2022-12-08T00:21:14.036Z,69.51
2022-12-08T00:23:46.521Z,68.99
2022-12-08T00:26:18.994Z,69.57
2022-12-08T00:28:51.483Z,69.77
2022-12-08T00:31:25.374Z,69.55
2022-12-08T00:33:58.401Z,69.94
2022-12-08T00:36:30.981Z,69.50
2022-12-08T00:39:03.577Z,69.39
2022-12-08T00:41:54.679Z,69.70
2022-12-08T00:44:27.213Z,69.90
2022-12-08T00:47:01.230Z,69.82
2022-12-08T00:49:33.680Z,70.14
2022-12-08T00:52:06.637Z,69.58
2022-12-08T00:54:39.137Z,69.90
2022-12-08T00:57:11.793Z,69.84
2022-12-08T00:59:44.308Z,70.01
2022-12-08T01:02:18.080Z,69.64
2022-12-08T01:04:50.536Z,70.05
2022-12-08T01:07:22.985Z,69.99
2022-12-08T01:09:55.371Z,69.79
2022-12-08T01:12:29.333Z,69.54
2022-12-08T01:15:02.782Z,69.77
2022-12-08T01:17:38.813Z,69.99
2022-12-08T01:20:12.008Z,69.73
2022-12-08T01:22:44.339Z,70.14
2022-12-08T01:25:16.906Z,70.05
2022-12-08T01:27:49.387Z,69.96
2022-12-08T01:30:22.136Z,69.78
2022-12-08T01:32:56.816Z,70.17
2022-12-08T01:35:29.271Z,70.12
2022-12-08T01:38:01.732Z,69.96
2022-12-08T01:40:34.173Z,69.88
2022-12-08T01:43:06.596Z,70.33
2022-12-08T01:45:39.278Z,70.42
2022-12-08T01:48:19.167Z,69.95
2022-12-08T01:50:54.269Z,70.02
2022-12-08T01:53:30.726Z,70.42
2022-12-08T01:56:07.316Z,70.56
2022-12-08T01:58:44.331Z,69.99
2022-12-08T02:01:17.454Z,70.45
2022-12-08T02:03:56.471Z,70.60
2022-12-08T02:06:33.708Z,70.22
2022-12-08T02:09:06.776Z,70.84
2022-12-08T02:11:39.233Z,70.56
2022-12-08T02:14:14.169Z,70.34
2022-12-08T02:16:54.753Z,70.22
2022-12-08T02:19:53.656Z,70.50
2022-12-08T02:22:33.641Z,70.11
2022-12-08T02:25:15.348Z,70.30
2022-12-08T02:27:59.824Z,70.93
2022-12-08T02:30:43.557Z,70.13
2022-12-08T02:33:42.343Z,70.98
2022-12-08T02:36:18.250Z,70.77
2022-12-08T02:39:01.152Z,70.68
2022-12-08T02:41:41.812Z,70.92
2022-12-08T02:44:23.380Z,70.99
2022-12-08T02:46:59.109Z,70.85
2022-12-08T02:49:34.683Z,70.88
2022-12-08T02:52:08.801Z,70.92
2022-12-08T02:54:44.285Z,71.14
2022-12-08T02:57:32.222Z,70.74
2022-12-08T03:00:09.222Z,71.03
2022-12-08T03:02:56.907Z,70.95
2022-12-08T03:05:45.866Z,71.11
2022-12-08T03:08:24.464Z,70.89
2022-12-08T03:11:04.460Z,71.34
2022-12-08T03:13:44.042Z,71.20
2022-12-08T03:16:20.687Z,70.76
2022-12-08T03:18:59.737Z,71.16
2022-12-08T03:21:36.268Z,71.29
2022-12-08T03:24:11.326Z,70.74
2022-12-08T03:26:48.780Z,71.14
2022-12-08T03:29:21.388Z,70.65
2022-12-08T03:31:57.969Z,71.52
2022-12-08T03:34:30.862Z,70.91
2022-12-08T03:37:04.962Z,71.04
2022-12-08T03:39:37.406Z,71.05
2022-12-08T03:42:09.999Z,71.75
2022-12-08T03:44:42.603Z,71.16
2022-12-08T03:47:15.165Z,71.11
2022-12-08T03:49:47.515Z,71.03
2022-12-08T03:52:21.516Z,71.10
2022-12-08T03:54:54.038Z,71.07
2022-12-08T03:57:26.545Z,71.35
2022-12-08T03:59:58.918Z,71.71
2022-12-08T04:02:31.476Z,71.35
2022-12-08T04:05:04.313Z,71.71
2022-12-08T04:07:38.216Z,71.55
2022-12-08T04:10:11.268Z,71.70
2022-12-08T04:12:45.094Z,71.71
2022-12-08T04:15:17.576Z,71.82
2022-12-08T04:17:50.092Z,71.27
2022-12-08T04:20:22.509Z,71.29
2022-12-08T04:22:56.436Z,71.68
2022-12-08T04:25:29.073Z,72.07
2022-12-08T04:28:01.722Z,71.23
2022-12-08T04:30:34.751Z,71.42
2022-12-08T04:33:07.391Z,71.67
2022-12-08T04:35:39.843Z,71.95
2022-12-08T04:38:14.108Z,72.13
2022-12-08T04:40:46.575Z,72.00
2022-12-08T04:43:20.059Z,71.96
2022-12-08T04:45:52.716Z,72.26
2022-12-08T04:48:25.212Z,72.04
2022-12-08T04:50:57.643Z,71.94
2022-12-08T04:53:31.603Z,71.87
2022-12-08T04:56:04.425Z,72.28
2022-12-08T04:58:36.869Z,71.86
2022-12-08T05:01:09.327Z,71.66
2022-12-08T05:03:41.949Z,71.56
2022-12-08T05:06:15.141Z,72.12
2022-12-08T05:08:49.112Z,71.80
2022-12-08T05:11:21.487Z,72.00
2022-12-08T05:13:54.151Z,71.97
2022-12-08T05:16:26.786Z,72.05
2022-12-08T05:18:59.232Z,72.22
2022-12-08T05:21:31.628Z,71.92
2022-12-08T05:24:06.395Z,71.80
2022-12-08T05:26:38.969Z,72.15
2022-12-08T05:29:11.387Z,72.01
2022-12-08T05:31:43.882Z,71.77
2022-12-08T05:34:16.703Z,72.09
2022-12-08T05:36:49.253Z,71.91
2022-12-08T05:39:23.227Z,72.18
2022-12-08T05:41:55.556Z,71.99
2022-12-08T05:44:28.097Z,72.51
2022-12-08T05:47:00.627Z,72.10
2022-12-08T05:49:33.095Z,72.08
2022-12-08T05:52:05.731Z,72.50
2022-12-08T05:54:39.749Z,71.78
2022-12-08T05:57:12.289Z,72.09
2022-12-08T05:59:44.903Z,72.27
2022-12-08T06:02:17.445Z,71.87
2022-12-08T06:04:50.062Z,72.27
2022-12-08T06:07:22.607Z,72.18
2022-12-08T06:09:56.639Z,72.08
2022-12-08T06:12:29.036Z,72.06
2022-12-08T06:15:01.538Z,72.00
2022-12-08T06:17:36.626Z,72.28
2022-12-08T06:20:10.053Z,72.04
2022-12-08T06:22:42.559Z,72.17
2022-12-08T06:25:16.517Z,72.27
2022-12-08T06:27:48.963Z,71.76
2022-12-08T06:30:21.322Z,72.14
2022-12-08T06:32:53.818Z,72.40
2022-12-08T06:35:26.301Z,72.17
2022-12-08T06:37:58.798Z,72.10
2022-12-08T06:40:32.635Z,72.33
2022-12-08T06:43:04.987Z,72.22
2022-12-08T06:45:37.507Z,71.92
2022-12-08T06:48:09.960Z,72.46
2022-12-08T06:50:42.621Z,72.46
2022-12-08T06:53:15.555Z,71.95
2022-12-08T06:56:00.376Z,72.25
2022-12-08T06:58:33.389Z,72.50
2022-12-08T07:01:07.775Z,72.32
2022-12-08T07:03:41.189Z,71.84
2022-12-08T07:06:17.007Z,72.16
2022-12-08T07:08:49.752Z,72.08
2022-12-08T07:11:23.614Z,72.15
2022-12-08T07:13:56.971Z,72.19
2022-12-08T07:16:29.679Z,72.08
2022-12-08T07:19:02.505Z,71.82
2022-12-08T07:21:35.091Z,71.92
2022-12-08T07:24:08.117Z,72.23
2022-12-08T07:26:42.187Z,72.07
2022-12-08T07:29:14.704Z,71.78
2022-12-08T07:31:47.145Z,71.99
2022-12-08T07:34:19.598Z,72.48
2022-12-08T07:36:52.154Z,72.15
2022-12-08T07:39:24.842Z,71.86
2022-12-08T07:41:58.897Z,72.07
2022-12-08T07:44:35.164Z,72.00
2022-12-08T07:47:07.723Z,72.01
2022-12-08T07:49:40.253Z,71.78
2022-12-08T07:52:12.800Z,72.20
2022-12-08T07:54:45.151Z,71.87
2022-12-08T07:57:19.087Z,71.85
2022-12-08T07:59:51.557Z,71.98
2022-12-08T08:02:25.655Z,71.72
2022-12-08T08:04:58.600Z,71.42
2022-12-08T08:07:31.406Z,71.99
2022-12-08T08:10:04.747Z,71.94
2022-12-08T08:12:42.192Z,71.89
2022-12-08T08:15:14.671Z,72.03
2022-12-08T08:17:51.703Z,71.84
2022-12-08T08:20:24.375Z,72.02
2022-12-08T08:22:57.619Z,71.68
2022-12-08T08:25:30.054Z,71.73
2022-12-08T08:28:04.805Z,72.01
2022-12-08T08:30:37.361Z,71.75
2022-12-08T08:33:11.263Z,71.74
2022-12-08T08:35:43.640Z,71.68
2022-12-08T08:38:16.124Z,72.23
2022-12-08T08:40:48.656Z,71.82
2022-12-08T08:43:36.230Z,72.00
2022-12-08T08:46:11.231Z,71.79
2022-12-08T08:48:48.141Z,71.86
2022-12-08T08:51:20.738Z,71.94
2022-12-08T08:53:53.926Z,71.62
2022-12-08T08:56:26.674Z,71.58
2022-12-08T08:59:03.090Z,71.94
2022-12-08T09:01:40.528Z,72.08
2022-12-08T09:04:13.068Z,71.69
2022-12-08T09:06:45.428Z,71.84
2022-12-08T09:09:18.544Z,71.67
2022-12-08T09:11:51.058Z,71.66
2022-12-08T09:14:25.075Z,71.63
2022-12-08T09:16:57.536Z,71.88
2022-12-08T09:19:31.663Z,71.53
2022-12-08T09:22:05.443Z,72.09
2022-12-08T09:24:38.062Z,71.57
2022-12-08T09:27:10.447Z,71.77
2022-12-08T09:29:45.799Z,71.82
2022-12-08T09:32:18.319Z,71.64
2022-12-08T09:34:52.328Z,71.90
2022-12-08T09:37:24.816Z,71.58
2022-12-08T09:39:57.719Z,71.78
2022-12-08T09:42:37.357Z,71.65
2022-12-08T09:45:13.072Z,71.63
2022-12-08T09:47:51.959Z,71.94
2022-12-08T09:50:32.396Z,72.03
2022-12-08T09:53:09.866Z,71.75
2022-12-08T09:55:47.080Z,71.78
2022-12-08T09:58:27.747Z,72.13
2022-12-08T10:01:03.285Z,71.65
2022-12-08T10:03:35.916Z,72.09
2022-12-08T10:06:16.089Z,71.63
2022-12-08T10:09:00.101Z,71.87
2022-12-08T10:11:40.667Z,72.13
2022-12-08T10:14:26.297Z,71.86
2022-12-08T10:17:10.343Z,71.94
2022-12-08T10:19:44.534Z,72.28
2022-12-08T10:22:26.626Z,71.89
2022-12-08T10:25:12.519Z,71.67
2022-12-08T10:27:49.550Z,71.98
2022-12-08T10:30:30.953Z,72.11
2022-12-08T10:33:14.482Z,71.80
2022-12-08T10:35:50.286Z,71.86
2022-12-08T10:38:27.242Z,72.01
2022-12-08T10:41:07.222Z,72.05
2022-12-08T10:43:44.194Z,71.79
2022-12-08T10:46:19.466Z,71.95
2022-12-08T10:48:55.827Z,72.18
2022-12-08T10:51:30.814Z,72.26
2022-12-08T10:54:06.766Z,71.76
2022-12-08T10:57:05.832Z,72.15
2022-12-08T10:59:42.871Z,71.66
2022-12-08T11:02:29.419Z,71.90
2022-12-08T11:05:04.479Z,71.60
2022-12-08T11:07:48.075Z,71.90
2022-12-08T11:10:35.533Z,71.45
2022-12-08T11:13:23.534Z,72.29
2022-12-08T11:16:10.904Z,72.21
2022-12-08T11:18:47.094Z,72.23
2022-12-08T11:21:21.190Z,71.71
2022-12-08T11:23:53.853Z,71.93
2022-12-08T11:26:32.950Z,71.56
2022-12-08T11:29:05.516Z,71.87
2022-12-08T11:31:50.035Z,71.88
2022-12-08T11:34:31.405Z,72.06
2022-12-08T11:37:11.342Z,71.99
2022-12-08T11:39:49.478Z,72.19
2022-12-08T11:42:27.811Z,71.97
2022-12-08T11:45:08.397Z,72.02
2022-12-08T11:47:57.240Z,71.85
2022-12-08T11:50:43.092Z,71.95
2022-12-08T11:53:38.569Z,71.97
2022-12-08T11:56:19.288Z,71.82
2022-12-08T11:58:56.239Z,71.68
2022-12-08T12:01:28.932Z,71.95
2022-12-08T12:04:10.839Z,71.75
2022-12-08T12:07:26.144Z,71.80
2022-12-08T12:10:37.685Z,71.66
2022-12-08T12:13:24.459Z,72.00
2022-12-08T12:16:22.336Z,72.29
2022-12-08T12:18:57.844Z,72.24
2022-12-08T12:21:35.045Z,71.80
2022-12-08T12:24:10.967Z,72.06
2022-12-08T12:26:56.231Z,72.15
2022-12-08T12:29:31.775Z,72.01
2022-12-08T12:32:11.129Z,71.89
2022-12-08T12:34:49.380Z,71.95
2022-12-08T12:37:24.459Z,72.14
2022-12-08T12:40:00.812Z,72.18
2022-12-08T12:42:40.006Z,72.17
2022-12-08T12:45:28.829Z,71.99
2022-12-08T12:48:29.268Z,72.10
2022-12-08T12:51:48.214Z,72.16
2022-12-08T12:54:23.297Z,72.00
2022-12-08T12:57:20.884Z,72.12
2022-12-08T13:00:09.971Z,72.06
2022-12-08T13:03:00.063Z,72.27
2022-12-08T13:05:50.293Z,72.15
2022-12-08T13:08:26.645Z,72.08
2022-12-08T13:11:03.314Z,72.47
2022-12-08T13:13:36.287Z,72.19
2022-12-08T13:16:21.773Z,72.14
2022-12-08T13:18:58.770Z,72.41
2022-12-08T13:21:35.334Z,72.22
2022-12-08T13:24:20.617Z,72.04
2022-12-08T13:27:33.224Z,72.50
2022-12-08T13:30:47.045Z,72.33
2022-12-08T13:33:31.861Z,72.35
2022-12-08T13:36:13.093Z,72.35
2022-12-08T13:38:47.951Z,72.36
2022-12-08T13:41:24.774Z,72.83
2022-12-08T13:44:57.111Z,72.15
2022-12-08T13:47:41.457Z,72.57
2022-12-08T13:59:31.028Z,72.76
2022-12-08T14:02:17.891Z,72.78
2022-12-08T14:08:00.884Z,73.01
2022-12-08T14:10:51.325Z,73.08
2022-12-08T14:13:28.157Z,73.53
2022-12-08T14:16:14.603Z,72.95
2022-12-08T14:18:47.395Z,73.17
2022-12-08T14:21:21.150Z,72.98
2022-12-08T14:23:55.302Z,72.86
2022-12-08T14:26:33.909Z,72.99
2022-12-08T14:29:08.684Z,73.02
2022-12-08T14:31:41.533Z,72.95
2022-12-08T14:34:31.020Z,72.89
2022-12-08T14:37:11.404Z,73.02
2022-12-08T14:39:48.542Z,72.99
2022-12-08T14:42:25.314Z,72.89
2022-12-08T14:45:01.119Z,72.69
2022-12-08T14:47:35.702Z,73.13
2022-12-08T14:50:40.549Z,73.09
2022-12-08T14:53:16.245Z,73.16
2022-12-08T14:55:53.041Z,73.18
2022-12-08T14:58:32.910Z,73.02
2022-12-08T15:01:10.599Z,72.82
2022-12-08T15:03:48.872Z,73.14
2022-12-08T15:06:25.862Z,73.02
2022-12-08T15:09:00.387Z,73.32
2022-12-08T15:11:35.929Z,72.91
2022-12-08T15:14:27.329Z,73.15
2022-12-08T15:17:00.084Z,72.81
2022-12-08T15:19:34.261Z,72.97
2022-12-08T15:22:13.654Z,73.41
2022-12-08T15:24:46.139Z,72.96
2022-12-08T15:27:23.137Z,73.16
2022-12-08T15:29:55.699Z,73.22
2022-12-08T15:32:28.267Z,73.26
2022-12-08T15:35:00.602Z,73.01
2022-12-08T15:37:35.858Z,73.22
2022-12-08T15:40:15.504Z,73.34
2022-12-08T15:42:49.654Z,73.04
2022-12-08T15:45:28.777Z,73.48
2022-12-08T15:48:01.308Z,73.41
2022-12-08T15:50:36.319Z,73.16
2022-12-08T15:53:10.113Z,73.33
2022-12-08T15:56:10.793Z,73.21
2022-12-08T15:58:57.825Z,72.96
2022-12-08T16:01:35.124Z,73.34
2022-12-08T16:07:36.507Z,73.49
2022-12-08T16:10:18.587Z,73.56
2022-12-08T16:16:16.068Z,73.60
2022-12-08T16:18:54.909Z,74.00
2022-12-08T16:22:17.242Z,73.82
2022-12-08T16:24:24.180Z,73.84
2022-12-08T16:27:58.645Z,73.41
2022-12-08T16:29:54.393Z,73.58
2022-12-08T16:32:28.903Z,73.99
2022-12-08T16:35:17.379Z,74.19
2022-12-08T16:37:50.285Z,73.85
2022-12-08T16:40:22.774Z,74.23
2022-12-08T16:42:55.365Z,74.23
2022-12-08T16:45:29.517Z,74.04
2022-12-08T16:48:03.917Z,73.90
2022-12-08T16:50:36.623Z,73.80
2022-12-08T16:53:12.380Z,74.11
2022-12-08T16:55:49.677Z,74.11
2022-12-08T16:58:22.528Z,73.86
2022-12-08T17:00:54.965Z,74.26
2022-12-08T17:03:30.413Z,74.31
2022-12-08T17:06:09.204Z,74.05
2022-12-08T17:08:44.426Z,74.47
2022-12-08T17:11:28.608Z,74.50
2022-12-08T17:14:01.172Z,74.50
2022-12-08T17:16:33.860Z,74.12
2022-12-08T17:19:08.608Z,74.53
2022-12-08T17:21:41.318Z,74.36
2022-12-08T17:24:18.567Z,74.34
2022-12-08T17:26:54.324Z,74.36
2022-12-08T17:29:27.140Z,74.35
2022-12-08T17:32:02.982Z,74.19
2022-12-08T17:34:37.273Z,74.20
2022-12-08T17:37:10.393Z,74.57
2022-12-08T17:39:43.349Z,74.32
2022-12-08T17:42:25.995Z,75.00
2022-12-08T17:44:58.787Z,74.26
2022-12-08T17:47:31.706Z,74.33
2022-12-08T17:50:07.722Z,74.83
2022-12-08T17:52:40.434Z,75.11
2022-12-08T17:55:12.927Z,74.23
2022-12-08T17:57:45.485Z,74.29
2022-12-08T18:00:18.971Z,74.82
2022-12-08T18:02:51.459Z,74.43
2022-12-08T18:05:25.759Z,74.61
2022-12-08T18:07:59.241Z,75.00
2022-12-08T18:10:31.840Z,74.38
2022-12-08T18:13:04.680Z,75.13
2022-12-08T18:15:39.301Z,75.20
2022-12-08T18:18:11.961Z,75.01
2022-12-08T18:20:46.775Z,74.70
2022-12-08T18:23:19.372Z,74.80
2022-12-08T18:25:51.825Z,75.31
2022-12-08T18:28:24.663Z,74.80
2022-12-08T18:30:57.337Z,75.26
2022-12-08T18:33:29.897Z,74.95
2022-12-08T18:36:07.340Z,75.41
2022-12-08T18:38:44.234Z,75.08
2022-12-08T18:41:24.577Z,75.51
2022-12-08T18:43:57.623Z,75.43
2022-12-08T18:46:31.661Z,75.46
2022-12-08T18:49:04.925Z,75.56
2022-12-08T18:51:39.244Z,75.25
2022-12-08T18:54:15.780Z,75.73
2022-12-08T18:56:52.624Z,75.28
2022-12-08T18:59:38.305Z,75.41
2022-12-08T19:02:18.747Z,75.43
2022-12-08T19:04:51.457Z,75.22
2022-12-08T19:07:25.510Z,75.28
2022-12-08T19:09:59.553Z,75.84
2022-12-08T19:12:32.145Z,75.05
2022-12-08T19:15:08.920Z,75.63
2022-12-08T19:17:41.943Z,75.95
2022-12-08T19:20:15.071Z,75.50
2022-12-08T19:22:49.297Z,75.76
2022-12-08T19:25:22.078Z,76.18
2022-12-08T19:27:59.162Z,76.17
2022-12-08T19:30:32.537Z,76.41
2022-12-08T19:33:05.825Z,76.24
2022-12-08T19:35:38.704Z,76.04
2022-12-08T19:38:15.457Z,76.04
2022-12-08T19:41:06.766Z,76.44
2022-12-08T19:43:57.996Z,76.33
2022-12-08T19:46:38.784Z,76.12
2022-12-08T19:49:12.734Z,75.89
2022-12-08T19:51:45.355Z,76.24
2022-12-08T19:54:19.361Z,76.24
2022-12-08T19:56:51.955Z,76.15
2022-12-08T19:59:30.427Z,76.17
2022-12-08T20:02:05.910Z,76.09
2022-12-08T20:04:38.732Z,76.38
2022-12-08T20:07:13.105Z,76.40
2022-12-08T20:09:49.480Z,76.13
2022-12-08T20:12:22.141Z,76.37
2022-12-08T20:14:57.262Z,76.46
2022-12-08T20:17:31.123Z,76.91
2022-12-08T20:20:07.362Z,76.56
2022-12-08T20:22:40.704Z,76.58
2022-12-08T20:25:15.349Z,76.16
2022-12-08T20:27:53.575Z,76.16
2022-12-08T20:30:28.950Z,75.79
2022-12-08T20:33:01.588Z,76.14
2022-12-08T20:35:34.436Z,76.37
2022-12-08T20:38:09.931Z,76.22
2022-12-08T20:40:44.426Z,76.68
2022-12-08T20:43:17.174Z,76.40
2022-12-08T20:45:50.133Z,76.29
2022-12-08T20:48:25.073Z,76.38
2022-12-08T20:50:57.841Z,77.07
2022-12-08T20:53:33.050Z,77.10
2022-12-08T20:56:07.805Z,76.32
2022-12-08T20:58:43.195Z,76.88
2022-12-08T21:01:23.189Z,76.67
2022-12-08T21:03:57.289Z,77.14
2022-12-08T21:06:30.282Z,76.65
2022-12-08T21:09:03.210Z,77.10
2022-12-08T21:11:37.461Z,76.34
2022-12-08T21:14:10.230Z,76.41
2022-12-08T21:16:42.970Z,76.89
2022-12-08T21:19:16.028Z,76.90
2022-12-08T21:21:50.858Z,76.82
2022-12-08T21:24:26.399Z,76.32
2022-12-08T21:27:03.291Z,76.30
2022-12-08T21:29:35.910Z,76.91
2022-12-08T21:32:08.555Z,76.47
2022-12-08T21:34:42.497Z,76.77
2022-12-08T21:37:15.286Z,76.52
2022-12-08T21:39:48.023Z,76.59
2022-12-08T21:42:40.332Z,76.48
2022-12-08T21:45:15.469Z,77.03
2022-12-08T21:47:49.619Z,76.40
2022-12-08T21:50:22.434Z,76.52
2022-12-08T21:52:57.752Z,76.79
2022-12-08T21:55:30.368Z,76.18
2022-12-08T21:58:04.453Z,76.94
2022-12-08T22:00:37.105Z,76.72
2022-12-08T22:03:14.056Z,76.82
2022-12-08T22:05:46.979Z,76.72
2022-12-08T22:08:19.785Z,76.44
2022-12-08T22:10:52.522Z,76.46
2022-12-08T22:13:26.615Z,76.34
2022-12-08T22:16:01.730Z,77.02
2022-12-08T22:18:35.586Z,77.12
2022-12-08T22:21:09.785Z,76.39
2022-12-08T22:23:42.610Z,76.35
2022-12-08T22:26:15.166Z,77.18
2022-12-08T22:28:49.402Z,77.09
2022-12-08T22:31:22.238Z,77.21
2022-12-08T22:33:55.075Z,77.04
2022-12-08T22:36:28.219Z,76.83
2022-12-08T22:39:02.060Z,76.88
2022-12-08T22:41:34.800Z,77.21
2022-12-08T22:44:09.277Z,76.53
2022-12-08T22:46:42.115Z,76.99
2022-12-08T22:49:14.710Z,76.94
2022-12-08T22:51:47.334Z,76.96
2022-12-08T22:54:20.000Z,76.54
2022-12-08T22:56:52.478Z,77.03
2022-12-08T22:59:26.773Z,76.59
2022-12-08T23:01:59.839Z,77.01
2022-12-08T23:04:32.381Z,77.34
2022-12-08T23:07:05.516Z,76.80
2022-12-08T23:09:38.446Z,76.54
2022-12-08T23:12:11.128Z,77.07
2022-12-08T23:14:45.030Z,76.34
2022-12-08T23:17:17.769Z,77.11
2022-12-08T23:19:50.519Z,76.97
2022-12-08T23:22:23.009Z,77.06
2022-12-08T23:24:55.723Z,76.54
2022-12-08T23:27:28.498Z,76.73
2022-12-08T23:30:03.065Z,77.23
2022-12-08T23:32:36.583Z,76.71
2022-12-08T23:35:09.496Z,76.50
2022-12-08T23:37:42.059Z,77.02
2022-12-08T23:40:14.747Z,76.88
2022-12-08T23:42:47.120Z,77.00
2022-12-08T23:45:21.199Z,76.66
2022-12-08T23:47:53.708Z,77.37
2022-12-08T23:50:26.250Z,76.44
2022-12-08T23:52:58.969Z,77.21
2022-12-08T23:55:31.495Z,77.35
2022-12-08T23:58:04.323Z,76.43
